createdAt,value
2019-03-20T00:01:43.465Z,0.01
2019-03-20T00:04:06.490Z,0.04
2019-03-20T00:06:37.802Z,0.02
2019-03-20T00:09:09.395Z,0.03
2019-03-20T00:11:40.533Z,0.01
2019-03-20T00:14:11.661Z,-0.11
2019-03-20T00:16:43.082Z,-0.11
2019-03-20T00:19:13.899Z,-0.04
2019-03-20T00:21:45.167Z,-0.10
2019-03-20T00:24:25.560Z,-0.10
2019-03-20T00:26:57.175Z,-0.16
2019-03-20T00:29:28.474Z,-0.06
2019-03-20T00:32:01.329Z,-0.07
2019-03-20T00:34:33.080Z,-0.11
2019-03-20T00:37:04.208Z,-0.18
2019-03-20T00:39:35.504Z,-0.29
2019-03-20T00:42:06.964Z,-0.22
2019-03-20T00:44:37.977Z,-0.17
2019-03-20T00:47:09.262Z,-0.14
2019-03-20T00:49:40.307Z,-0.19
2019-03-20T00:52:11.396Z,-0.24
2019-03-20T00:54:42.815Z,-0.24
2019-03-20T00:57:14.148Z,-0.25
2019-03-20T00:59:45.679Z,-0.17
2019-03-20T01:02:16.894Z,-0.12
2019-03-20T01:04:48.027Z,-0.16
2019-03-20T01:07:19.816Z,-0.16
2019-03-20T01:09:51.165Z,-0.08
2019-03-20T01:12:22.360Z,-0.17
2019-03-20T01:14:53.754Z,-0.04
2019-03-20T01:17:24.740Z,-0.09
2019-03-20T01:19:55.813Z,-0.22
2019-03-20T01:22:26.923Z,-0.26
2019-03-20T01:24:58.415Z,-0.34
2019-03-20T01:27:30.085Z,-0.37
2019-03-20T01:30:01.565Z,-0.57
2019-03-20T01:32:32.320Z,-0.40
2019-03-20T01:35:03.647Z,-0.40
2019-03-20T01:37:35.048Z,-0.42
2019-03-20T01:40:07.983Z,-0.30
2019-03-20T01:42:39.133Z,-0.32
2019-03-20T01:45:11.337Z,-0.36
2019-03-20T01:47:42.267Z,-0.38
2019-03-20T01:50:13.276Z,-0.40
2019-03-20T01:52:44.417Z,-0.42
2019-03-20T01:55:15.391Z,-0.54
2019-03-20T01:57:46.779Z,-0.54
2019-03-20T02:00:18.155Z,-0.56
2019-03-20T02:02:49.576Z,-0.59
2019-03-20T02:05:20.424Z,-0.61
2019-03-20T02:07:51.990Z,-0.65
2019-03-20T02:10:23.140Z,-0.65
2019-03-20T02:12:54.201Z,-0.59
2019-03-20T02:15:25.449Z,-0.61
2019-03-20T02:17:56.591Z,-0.60
2019-03-20T02:20:27.854Z,-0.58
2019-03-20T02:22:59.068Z,-0.67
2019-03-20T02:25:32.376Z,-0.78
2019-03-20T02:28:04.061Z,-0.78
2019-03-20T02:30:35.270Z,-0.82
2019-03-20T02:33:06.818Z,-0.90
2019-03-20T02:35:50.586Z,-0.90
2019-03-20T02:38:10.941Z,-0.69
2019-03-20T02:40:41.789Z,-0.67
2019-03-20T02:43:13.037Z,-0.79
2019-03-20T02:45:44.254Z,-0.99
2019-03-20T02:48:15.637Z,-0.94
2019-03-20T02:50:47.042Z,-0.94
2019-03-20T02:53:18.216Z,-0.89
2019-03-20T02:55:49.321Z,-0.83
2019-03-20T02:58:20.274Z,-0.83
2019-03-20T03:00:51.293Z,-0.84
2019-03-20T03:03:22.050Z,-0.84
2019-03-20T03:06:05.921Z,-0.86
2019-03-20T03:08:25.885Z,-0.85
2019-03-20T03:10:57.134Z,-0.85
2019-03-20T03:13:27.967Z,-0.92
2019-03-20T03:15:59.065Z,-1.02
2019-03-20T03:18:30.098Z,-1.08
2019-03-20T03:21:01.345Z,-1.08
2019-03-20T03:23:32.488Z,-1.10
2019-03-20T03:26:03.634Z,-1.11
2019-03-20T03:28:34.833Z,-1.14
2019-03-20T03:31:06.905Z,-1.20
2019-03-20T03:33:38.060Z,-1.20
2019-03-20T03:36:20.614Z,-1.23
2019-03-20T03:38:42.117Z,-1.27
2019-03-20T03:41:13.167Z,-1.26
2019-03-20T03:43:44.170Z,-1.20
2019-03-20T03:46:15.002Z,-1.18
2019-03-20T03:48:45.879Z,-1.15
2019-03-20T03:51:16.968Z,-1.11
2019-03-20T03:53:49.136Z,-1.08
2019-03-20T03:56:20.297Z,-1.08
2019-03-20T03:58:51.659Z,-1.11
2019-03-20T04:01:23.156Z,-1.14
2019-03-20T04:03:54.623Z,-1.15
2019-03-20T04:06:35.429Z,-1.17
2019-03-20T04:08:58.859Z,-1.23
2019-03-20T04:11:30.365Z,-1.27
2019-03-20T04:14:01.312Z,-1.31
2019-03-20T04:16:32.306Z,-1.39
2019-03-20T04:19:03.321Z,-1.46
2019-03-20T04:21:34.947Z,-1.49
2019-03-20T04:24:07.175Z,-1.52
2019-03-20T04:26:38.298Z,-1.49
2019-03-20T04:29:09.510Z,-1.51
2019-03-20T04:31:40.716Z,-1.49
2019-03-20T04:34:11.981Z,-1.45
2019-03-20T04:36:47.548Z,-1.42
2019-03-20T04:39:15.606Z,-1.43
2019-03-20T04:41:46.277Z,-1.42
2019-03-20T04:44:17.535Z,-1.43
2019-03-20T04:46:49.089Z,-1.47
2019-03-20T04:49:20.695Z,-1.47
2019-03-20T04:51:52.014Z,-1.53
2019-03-20T04:54:23.248Z,-1.52
2019-03-20T04:56:54.498Z,-1.51
2019-03-20T04:59:25.715Z,-1.45
2019-03-20T05:01:57.069Z,-1.46
2019-03-20T05:04:29.041Z,-1.55
2019-03-20T05:07:00.172Z,-1.55
2019-03-20T05:09:31.748Z,-1.54
2019-03-20T05:12:03.052Z,-1.52
2019-03-20T05:14:34.059Z,-1.58
2019-03-20T05:17:05.175Z,-1.62
2019-03-20T05:19:36.254Z,-1.61
2019-03-20T05:22:07.251Z,-1.63
2019-03-20T05:24:38.192Z,-1.65
2019-03-20T05:27:09.404Z,-1.64
2019-03-20T05:29:40.711Z,-1.58
2019-03-20T05:32:11.638Z,-1.49
2019-03-20T05:34:42.655Z,-1.42
2019-03-20T05:37:14.012Z,-1.41
2019-03-20T05:39:45.707Z,-1.36
2019-03-20T05:42:16.607Z,-1.32
2019-03-20T05:44:47.667Z,-1.29
2019-03-20T05:47:19.075Z,-1.20
2019-03-20T05:49:50.430Z,-1.12
2019-03-20T05:52:21.636Z,-1.03
2019-03-20T05:54:52.700Z,-0.97
2019-03-20T05:57:24.126Z,-0.87
2019-03-20T05:59:55.174Z,-0.79
2019-03-20T06:02:26.612Z,-0.76
2019-03-20T06:04:58.264Z,-0.71
2019-03-20T06:07:29.563Z,-0.59
2019-03-20T06:10:01.234Z,-0.65
2019-03-20T06:12:32.514Z,-0.57
2019-03-20T06:15:03.961Z,-0.50
2019-03-20T06:17:35.818Z,-0.49
2019-03-20T06:20:11.101Z,-0.49
2019-03-20T06:22:43.753Z,-0.37
2019-03-20T06:25:16.619Z,-0.27
2019-03-20T06:27:49.475Z,-0.24
2019-03-20T06:30:22.453Z,-0.10
2019-03-20T06:32:53.941Z,-0.01
2019-03-20T06:35:25.052Z,0.13
2019-03-20T06:37:56.563Z,0.21
2019-03-20T06:40:28.200Z,0.27
2019-03-20T06:42:59.359Z,0.54
2019-03-20T06:45:33.572Z,0.54
2019-03-20T06:48:04.736Z,0.60
2019-03-20T06:50:35.777Z,0.64
2019-03-20T06:53:07.829Z,0.77
2019-03-20T06:55:39.239Z,0.89
2019-03-20T06:58:11.157Z,0.98
2019-03-20T07:00:47.139Z,1.18
2019-03-20T07:03:22.010Z,1.18
2019-03-20T07:05:56.490Z,1.35
2019-03-20T07:08:31.122Z,1.35
2019-03-20T07:11:02.148Z,1.66
2019-03-20T07:13:33.069Z,1.66
2019-03-20T07:16:05.782Z,1.76
2019-03-20T07:18:36.631Z,1.88
2019-03-20T07:21:08.861Z,1.98
2019-03-20T07:23:40.338Z,2.05
2019-03-20T07:26:11.577Z,2.05
2019-03-20T07:28:42.857Z,2.23
2019-03-20T07:31:15.648Z,2.33
2019-03-20T07:33:46.969Z,2.44
2019-03-20T07:36:18.140Z,2.55
2019-03-20T07:38:49.470Z,2.66
2019-03-20T07:41:20.808Z,2.77
2019-03-20T07:43:51.864Z,2.91
2019-03-20T07:46:23.240Z,3.04
2019-03-20T07:48:54.657Z,3.18
2019-03-20T07:51:25.850Z,3.30
2019-03-20T07:53:57.620Z,3.42
2019-03-20T07:56:28.396Z,3.50
2019-03-20T07:58:59.565Z,3.66
2019-03-20T08:01:30.800Z,3.75
2019-03-20T08:04:02.282Z,3.90
2019-03-20T08:06:35.069Z,4.06
2019-03-20T08:09:07.520Z,4.25
2019-03-20T08:11:38.823Z,4.33
2019-03-20T08:14:09.761Z,4.47
2019-03-20T08:16:41.251Z,4.61
2019-03-20T08:19:13.631Z,4.67
2019-03-20T08:21:44.388Z,4.79
2019-03-20T08:24:16.079Z,4.92
2019-03-20T08:26:47.667Z,5.04
2019-03-20T08:29:19.362Z,5.14
2019-03-20T08:31:51.228Z,5.28
2019-03-20T08:34:22.545Z,5.38
2019-03-20T08:36:53.774Z,5.56
2019-03-20T08:39:24.796Z,5.63
2019-03-20T08:41:56.058Z,5.65
2019-03-20T08:44:27.517Z,5.72
2019-03-20T08:46:59.465Z,5.86
2019-03-20T08:49:30.714Z,6.02
2019-03-20T08:52:02.026Z,6.06
2019-03-20T08:54:33.293Z,6.15
2019-03-20T08:57:04.457Z,6.22
2019-03-20T08:59:36.306Z,6.26
2019-03-20T09:02:07.740Z,6.39
2019-03-20T09:04:39.101Z,6.55
2019-03-20T09:07:10.588Z,6.64
2019-03-20T09:09:42.232Z,6.78
2019-03-20T09:12:13.669Z,6.79
2019-03-20T09:14:45.280Z,6.82
2019-03-20T09:17:17.222Z,6.94
2019-03-20T09:19:48.537Z,7.06
2019-03-20T09:22:20.156Z,7.27
2019-03-20T09:24:51.438Z,7.34
2019-03-20T09:27:22.953Z,7.42
2019-03-20T09:29:54.327Z,7.46
2019-03-20T09:32:25.815Z,7.58
2019-03-20T09:34:56.811Z,7.69
2019-03-20T09:37:28.014Z,7.82
2019-03-20T09:39:59.596Z,7.88
2019-03-20T09:42:31.077Z,7.89
2019-03-20T09:45:02.525Z,8.01
2019-03-20T09:47:34.031Z,8.06
2019-03-20T09:50:08.266Z,7.94
2019-03-20T09:52:39.874Z,7.95
2019-03-20T09:55:13.951Z,8.19
2019-03-20T09:57:45.242Z,8.32
2019-03-20T10:00:19.620Z,8.47
2019-03-20T10:02:50.988Z,8.49
2019-03-20T10:05:22.285Z,8.61
2019-03-20T10:07:53.286Z,8.64
2019-03-20T10:10:27.725Z,8.89
2019-03-20T10:12:59.079Z,9.02
2019-03-20T10:15:32.083Z,8.92
2019-03-20T10:18:03.221Z,8.88
2019-03-20T10:20:35.588Z,9.04
2019-03-20T10:23:07.612Z,9.09
2019-03-20T10:25:44.433Z,8.93
2019-03-20T10:28:11.539Z,9.15
2019-03-20T10:30:45.161Z,9.34
2019-03-20T10:33:17.374Z,9.44
2019-03-20T10:35:50.427Z,9.60
2019-03-20T10:38:21.854Z,9.71
2019-03-20T10:40:53.344Z,9.82
2019-03-20T10:43:24.550Z,10.02
2019-03-20T10:45:56.548Z,10.12
2019-03-20T10:48:28.395Z,10.33
2019-03-20T10:50:59.368Z,10.32
2019-03-20T10:53:31.186Z,10.19
2019-03-20T10:56:03.067Z,10.21
2019-03-20T10:58:34.375Z,10.15
2019-03-20T11:01:06.205Z,10.25
2019-03-20T11:03:36.885Z,10.24
2019-03-20T11:06:07.917Z,10.21
2019-03-20T11:08:39.520Z,10.29
2019-03-20T11:11:10.887Z,10.63
2019-03-20T11:13:43.629Z,10.80
2019-03-20T11:16:15.198Z,10.63
2019-03-20T11:18:48.625Z,10.51
2019-03-20T11:21:20.325Z,10.48
2019-03-20T11:23:51.445Z,10.56
2019-03-20T11:26:23.431Z,10.58
2019-03-20T11:28:55.104Z,10.71
2019-03-20T11:31:28.097Z,10.77
2019-03-20T11:33:59.980Z,10.63
2019-03-20T11:36:32.859Z,10.87
2019-03-20T11:39:05.466Z,11.04
2019-03-20T11:41:37.780Z,11.03
2019-03-20T11:44:09.466Z,11.03
2019-03-20T11:46:41.182Z,10.93
2019-03-20T11:49:13.242Z,11.07
2019-03-20T11:51:44.726Z,11.17
2019-03-20T11:54:16.316Z,11.11
2019-03-20T11:56:47.515Z,11.08
2019-03-20T11:59:18.935Z,11.02
2019-03-20T12:01:50.306Z,11.19
2019-03-20T12:04:22.502Z,11.20
2019-03-20T12:06:53.993Z,11.27
2019-03-20T12:09:25.629Z,11.30
2019-03-20T12:11:56.756Z,11.51
2019-03-20T12:14:28.148Z,11.49
2019-03-20T12:16:59.702Z,11.47
2019-03-20T12:19:30.838Z,11.49
2019-03-20T12:22:02.405Z,11.45
2019-03-20T12:24:33.726Z,11.17
2019-03-20T12:27:14.687Z,11.14
2019-03-20T12:29:38.302Z,11.37
2019-03-20T12:32:09.968Z,11.39
2019-03-20T12:34:42.011Z,11.21
2019-03-20T12:37:13.326Z,11.38
2019-03-20T12:39:52.815Z,11.59
2019-03-20T12:42:17.739Z,11.37
2019-03-20T12:44:49.341Z,11.34
2019-03-20T12:47:21.072Z,11.29
2019-03-20T12:49:52.478Z,11.41
2019-03-20T12:52:24.193Z,11.54
2019-03-20T12:54:55.593Z,11.76
2019-03-20T12:57:27.326Z,11.83
2019-03-20T12:59:59.610Z,11.82
2019-03-20T13:02:31.319Z,11.71
2019-03-20T13:05:02.878Z,11.49
2019-03-20T13:07:34.760Z,11.49
2019-03-20T13:10:09.378Z,11.64
2019-03-20T13:12:41.927Z,11.75
2019-03-20T13:15:16.191Z,11.68
2019-03-20T13:17:47.730Z,11.64
2019-03-20T13:20:19.097Z,11.72
2019-03-20T13:22:53.538Z,11.86
2019-03-20T13:25:25.073Z,11.89
2019-03-20T13:27:57.761Z,11.88
2019-03-20T13:30:32.250Z,11.92
2019-03-20T13:33:03.850Z,11.97
2019-03-20T13:35:34.952Z,11.80
2019-03-20T13:38:06.453Z,11.73
2019-03-20T13:40:37.723Z,11.57
2019-03-20T13:43:09.339Z,11.50
2019-03-20T13:45:40.683Z,11.58
2019-03-20T13:48:12.079Z,11.49
2019-03-20T13:50:43.065Z,11.58
2019-03-20T13:53:15.482Z,11.71
2019-03-20T13:55:47.073Z,11.79
2019-03-20T13:58:18.381Z,11.82
2019-03-20T14:00:49.744Z,11.59
2019-03-20T14:03:21.182Z,11.46
2019-03-20T14:05:52.786Z,11.43
2019-03-20T14:08:24.040Z,11.40
2019-03-20T14:10:55.283Z,11.59
2019-03-20T14:13:26.724Z,11.74
2019-03-20T14:15:59.065Z,11.76
2019-03-20T14:18:30.838Z,11.65
2019-03-20T14:21:02.066Z,11.54
2019-03-20T14:23:33.131Z,11.44
2019-03-20T14:26:04.001Z,11.49
2019-03-20T14:28:35.063Z,11.53
2019-03-20T14:31:06.335Z,11.59
2019-03-20T14:33:38.134Z,11.60
2019-03-20T14:36:09.445Z,11.52
2019-03-20T14:38:42.146Z,11.65
2019-03-20T14:41:21.215Z,11.63
2019-03-20T14:43:46.111Z,11.58
2019-03-20T14:46:17.373Z,11.55
2019-03-20T14:48:48.835Z,11.57
2019-03-20T14:51:20.708Z,11.60
2019-03-20T14:53:52.554Z,11.53
2019-03-20T14:56:23.906Z,11.67
2019-03-20T14:58:55.065Z,11.76
2019-03-20T15:01:26.483Z,11.71
2019-03-20T15:03:59.958Z,11.79
2019-03-20T15:06:31.310Z,11.87
2019-03-20T15:09:02.348Z,11.76
2019-03-20T15:11:33.850Z,11.67
2019-03-20T15:14:05.740Z,11.73
2019-03-20T15:16:37.404Z,11.69
2019-03-20T15:19:08.874Z,11.57
2019-03-20T15:21:40.313Z,11.71
2019-03-20T15:24:11.494Z,11.85
2019-03-20T15:26:43.680Z,11.84
2019-03-20T15:29:15.096Z,11.65
2019-03-20T15:31:46.724Z,11.75
2019-03-20T15:34:18.577Z,11.90
2019-03-20T15:36:50.224Z,11.97
2019-03-20T15:39:21.694Z,11.80
2019-03-20T15:41:53.404Z,11.80
2019-03-20T15:44:24.748Z,11.65
2019-03-20T15:46:55.683Z,11.55
2019-03-20T15:49:26.997Z,11.37
2019-03-20T15:51:58.119Z,11.29
2019-03-20T15:54:29.432Z,11.37
2019-03-20T15:57:00.630Z,11.25
2019-03-20T15:59:34.488Z,11.21
2019-03-20T16:02:05.766Z,11.34
2019-03-20T16:04:37.520Z,11.39
2019-03-20T16:07:08.893Z,11.43
2019-03-20T16:09:40.254Z,11.47
2019-03-20T16:12:11.632Z,11.50
2019-03-20T16:14:42.795Z,11.45
2019-03-20T16:17:14.158Z,11.40
2019-03-20T16:19:45.379Z,11.23
2019-03-20T16:22:16.466Z,11.21
2019-03-20T16:24:48.082Z,11.16
2019-03-20T16:27:19.443Z,11.06
2019-03-20T16:29:51.854Z,10.99
2019-03-20T16:32:24.484Z,10.88
2019-03-20T16:34:56.307Z,10.81
2019-03-20T16:37:27.690Z,10.70
2019-03-20T16:39:58.877Z,10.67
2019-03-20T16:42:34.222Z,10.58
2019-03-20T16:45:08.720Z,10.53
2019-03-20T16:47:40.117Z,10.47
2019-03-20T16:50:15.135Z,10.39
2019-03-20T16:52:46.986Z,10.39
2019-03-20T16:55:18.950Z,10.27
2019-03-20T16:57:50.190Z,10.24
2019-03-20T17:00:22.846Z,10.26
2019-03-20T17:02:53.897Z,10.12
2019-03-20T17:05:25.823Z,10.06
2019-03-20T17:07:57.376Z,10.07
2019-03-20T17:10:30.016Z,10.03
2019-03-20T17:13:01.881Z,9.98
2019-03-20T17:15:35.543Z,9.95
2019-03-20T17:18:31.271Z,9.81
2019-03-20T17:21:04.094Z,9.73
2019-03-20T17:23:35.597Z,9.62
2019-03-20T17:26:07.325Z,9.54
2019-03-20T17:28:38.762Z,9.49
2019-03-20T17:31:11.682Z,9.42
2019-03-20T17:33:42.878Z,9.34
2019-03-20T17:36:14.415Z,9.32
2019-03-20T17:38:45.738Z,9.34
2019-03-20T17:41:17.220Z,9.27
2019-03-20T17:56:35.563Z,9.14
2019-03-20T18:12:09.125Z,8.88
2019-03-20T18:14:40.447Z,8.83
2019-03-20T18:17:11.730Z,8.79
2019-03-20T18:19:42.733Z,8.73
2019-03-20T18:22:14.156Z,8.66
2019-03-20T18:24:45.111Z,8.61
2019-03-20T18:27:16.632Z,8.62
2019-03-20T18:29:50.827Z,8.65
2019-03-20T18:32:22.399Z,8.63
2019-03-20T18:34:53.548Z,8.66
2019-03-20T18:37:24.780Z,8.66
2019-03-20T18:39:55.632Z,8.69
2019-03-20T18:42:26.717Z,8.69
2019-03-20T18:44:58.433Z,8.68
2019-03-20T18:47:29.919Z,8.74
2019-03-20T18:50:05.449Z,8.76
2019-03-20T18:52:46.670Z,8.79
2019-03-20T18:58:27.440Z,8.84
2019-03-20T19:01:04.131Z,8.87
2019-03-20T19:07:22.472Z,8.91
2019-03-20T19:09:57.513Z,8.94
2019-03-20T19:19:21.373Z,9.01
2019-03-20T19:21:54.279Z,9.05
2019-03-20T19:24:26.086Z,9.02
2019-03-20T19:27:02.775Z,8.98
2019-03-20T19:29:39.645Z,8.95
2019-03-20T19:32:13.518Z,8.98
2019-03-20T19:41:16.582Z,9.00
2019-03-20T20:22:09.970Z,9.11
2019-03-20T20:24:50.404Z,9.11
2019-03-20T20:27:23.095Z,9.11
2019-03-20T20:29:56.560Z,9.13
2019-03-20T23:02:29.807Z,8.93
2019-03-20T23:05:03.416Z,8.90
2019-03-20T23:07:34.796Z,8.87
2019-03-20T23:10:09.843Z,8.88
2019-03-20T23:12:40.793Z,8.85
2019-03-20T23:15:15.005Z,8.84
2019-03-20T23:17:46.393Z,8.86
2019-03-20T23:20:21.332Z,8.83
2019-03-20T23:22:53.649Z,8.83
2019-03-20T23:25:25.689Z,8.78
2019-03-20T23:27:57.082Z,8.77
2019-03-20T23:30:30.087Z,8.75
2019-03-20T23:33:01.469Z,8.75
2019-03-20T23:35:32.772Z,8.72
2019-03-20T23:38:04.067Z,8.69
2019-03-20T23:40:35.373Z,8.67
2019-03-20T23:43:08.876Z,8.66
2019-03-20T23:45:40.038Z,8.69
2019-03-20T23:48:14.709Z,8.70
2019-03-20T23:50:46.387Z,8.69
2019-03-20T23:53:18.755Z,8.72
2019-03-20T23:55:49.734Z,8.68
2019-03-20T23:58:21.908Z,8.68
